createdAt,value
2019-02-08T00:01:26.689Z,19.17
2019-02-08T00:03:56.095Z,19.93
2019-02-08T00:06:25.538Z,24.60
2019-02-08T00:08:55.005Z,23.03
2019-02-08T00:11:24.494Z,20.27
2019-02-08T00:13:53.900Z,22.70
2019-02-08T00:16:23.886Z,21.63
2019-02-08T00:18:53.341Z,22.53
2019-02-08T00:21:23.057Z,24.70
2019-02-08T00:23:52.452Z,20.20
2019-02-08T00:26:21.843Z,22.50
2019-02-08T00:28:51.437Z,23.30
2019-02-08T00:31:20.902Z,20.57
2019-02-08T00:33:50.301Z,20.23
2019-02-08T00:36:19.747Z,20.07
2019-02-08T00:38:49.219Z,23.50
2019-02-08T00:41:18.706Z,17.80
2019-02-08T00:43:48.169Z,21.70
2019-02-08T00:46:17.645Z,16.47
2019-02-08T00:48:47.885Z,18.17
2019-02-08T00:51:17.316Z,21.87
2019-02-08T00:53:46.804Z,20.90
2019-02-08T00:56:16.350Z,21.40
2019-02-08T00:58:45.863Z,20.47
2019-02-08T01:01:15.258Z,23.90
2019-02-08T01:03:45.038Z,23.70
2019-02-08T01:06:15.127Z,20.57
2019-02-08T01:08:44.516Z,19.97
2019-02-08T01:11:13.887Z,23.17
2019-02-08T01:13:43.420Z,19.87
2019-02-08T01:16:12.891Z,24.47
2019-02-08T01:18:42.277Z,25.53
2019-02-08T01:21:11.678Z,17.10
2019-02-08T01:23:41.561Z,20.87
2019-02-08T01:26:11.097Z,21.27
2019-02-08T01:28:40.877Z,24.10
2019-02-08T01:31:10.446Z,17.57
2019-02-08T01:33:39.824Z,24.00
2019-02-08T01:36:09.234Z,19.53
2019-02-08T01:38:38.699Z,22.63
2019-02-08T01:41:08.284Z,19.87
2019-02-08T01:43:37.709Z,19.57
2019-02-08T01:46:07.093Z,20.27
2019-02-08T01:48:36.555Z,20.60
2019-02-08T01:51:06.286Z,17.90
2019-02-08T01:53:35.680Z,24.83
2019-02-08T01:56:05.073Z,19.77
2019-02-08T01:58:34.845Z,20.97
2019-02-08T02:01:05.016Z,22.83
2019-02-08T02:03:34.402Z,18.17
2019-02-08T02:06:04.011Z,21.70
2019-02-08T02:08:33.504Z,20.27
2019-02-08T02:11:02.875Z,21.00
2019-02-08T02:13:32.409Z,18.20
2019-02-08T02:16:01.997Z,20.87
2019-02-08T02:18:31.367Z,22.07
2019-02-08T02:21:00.924Z,22.50
2019-02-08T02:23:30.397Z,21.53
2019-02-08T02:25:59.910Z,20.40
2019-02-08T02:28:29.308Z,23.67
2019-02-08T02:30:58.683Z,20.73
2019-02-08T02:33:28.131Z,20.87
2019-02-08T02:35:57.651Z,22.87
2019-02-08T02:38:27.018Z,23.57
2019-02-08T02:40:56.404Z,25.17
2019-02-08T02:43:26.149Z,25.83
2019-02-08T02:45:55.629Z,23.50
2019-02-08T02:48:25.105Z,23.07
2019-02-08T02:50:54.726Z,23.43
2019-02-08T02:53:24.892Z,25.67
2019-02-08T02:55:54.276Z,25.33
2019-02-08T02:58:23.786Z,26.10
2019-02-08T03:00:53.399Z,27.73
2019-02-08T03:03:22.756Z,21.47
2019-02-08T03:05:52.168Z,26.77
2019-02-08T03:08:21.657Z,22.57
2019-02-08T03:10:52.373Z,26.03
2019-02-08T03:13:21.804Z,22.87
2019-02-08T03:15:51.155Z,23.97
2019-02-08T03:18:20.628Z,22.57
2019-02-08T03:20:50.155Z,19.93
2019-02-08T03:23:19.525Z,26.10
2019-02-08T03:25:48.989Z,23.20
2019-02-08T03:28:18.404Z,24.67
2019-02-08T03:30:58.577Z,23.37
2019-02-08T03:33:28.312Z,20.53
2019-02-08T03:35:57.807Z,21.37
2019-02-08T03:38:27.153Z,24.63
2019-02-08T03:40:56.579Z,22.97
2019-02-08T03:43:26.053Z,24.63
2019-02-08T03:45:55.533Z,26.27
2019-02-08T03:48:24.977Z,21.90
2019-02-08T03:50:54.355Z,21.43
2019-02-08T03:53:23.933Z,27.77
2019-02-08T03:55:58.278Z,21.93
2019-02-08T03:58:24.549Z,22.23
2019-02-08T04:01:02.820Z,22.90
2019-02-08T04:03:32.498Z,24.73
2019-02-08T04:06:01.930Z,24.40
2019-02-08T04:08:31.449Z,19.90
2019-02-08T04:11:01.041Z,23.67
2019-02-08T04:13:30.427Z,26.60
2019-02-08T04:15:59.857Z,27.47
2019-02-08T04:18:29.356Z,23.33
2019-02-08T04:20:58.831Z,27.03
2019-02-08T04:23:28.349Z,21.80
2019-02-08T04:25:57.723Z,21.40
2019-02-08T04:28:27.214Z,22.50
2019-02-08T04:30:56.905Z,27.57
2019-02-08T04:33:26.337Z,26.60
2019-02-08T04:35:55.712Z,24.90
2019-02-08T04:38:25.229Z,25.47
2019-02-08T04:40:54.706Z,22.07
2019-02-08T04:43:24.084Z,25.57
2019-02-08T04:45:53.572Z,26.60
2019-02-08T04:48:22.959Z,24.63
2019-02-08T04:50:52.328Z,20.83
2019-02-08T04:53:21.847Z,28.30
2019-02-08T04:55:51.322Z,22.30
2019-02-08T04:58:22.092Z,21.50
2019-02-08T05:00:51.661Z,26.67
2019-02-08T05:03:21.123Z,25.77
2019-02-08T05:05:50.694Z,22.50
2019-02-08T05:08:20.131Z,24.80
2019-02-08T05:10:49.502Z,27.93
2019-02-08T05:13:18.981Z,23.93
2019-02-08T05:15:48.502Z,26.57
2019-02-08T05:18:17.886Z,24.27
2019-02-08T05:20:47.231Z,22.83
2019-02-08T05:23:16.917Z,25.87
2019-02-08T05:25:46.397Z,25.07
2019-02-08T05:28:15.763Z,24.67
2019-02-08T05:30:45.178Z,23.83
2019-02-08T05:33:14.651Z,24.47
2019-02-08T05:35:44.124Z,22.90
2019-02-08T05:38:13.714Z,23.20
2019-02-08T05:40:43.104Z,25.13
2019-02-08T05:43:12.564Z,26.10
2019-02-08T05:45:42.083Z,26.63
2019-02-08T05:48:11.475Z,23.90
2019-02-08T05:50:40.833Z,25.50
2019-02-08T05:53:10.394Z,26.10
2019-02-08T05:55:39.854Z,31.93
2019-02-08T05:58:10.320Z,25.93
2019-02-08T06:00:51.166Z,23.30
2019-02-08T06:03:20.783Z,22.70
2019-02-08T06:05:50.419Z,27.27
2019-02-08T06:08:20.039Z,22.17
2019-02-08T06:10:49.494Z,30.60
2019-02-08T06:13:18.905Z,24.27
2019-02-08T06:15:48.313Z,24.17
2019-02-08T06:18:17.777Z,28.47
2019-02-08T06:20:47.250Z,40.17
2019-02-08T06:23:16.662Z,31.33
2019-02-08T06:25:46.035Z,28.07
2019-02-08T06:28:15.520Z,34.47
2019-02-08T06:30:45.152Z,29.60
2019-02-08T06:33:14.538Z,30.07
2019-02-08T06:35:43.928Z,31.90
2019-02-08T06:38:13.564Z,35.87
2019-02-08T06:40:45.552Z,26.03
2019-02-08T06:43:14.938Z,21.50
2019-02-08T06:45:44.559Z,29.40
2019-02-08T06:48:14.494Z,25.67
2019-02-08T06:50:43.860Z,26.67
2019-02-08T06:53:13.617Z,25.00
2019-02-08T06:55:43.175Z,23.83
2019-02-08T06:58:25.990Z,25.30
2019-02-08T07:01:23.711Z,27.33
2019-02-08T07:04:11.927Z,23.60
2019-02-08T07:06:53.054Z,25.80
2019-02-08T07:09:44.311Z,26.33
2019-02-08T07:12:22.175Z,24.47
2019-02-08T07:15:26.449Z,29.73
2019-02-08T07:18:09.010Z,28.77
2019-02-08T07:21:09.638Z,24.97
2019-02-08T07:24:10.278Z,29.20
2019-02-08T07:27:07.952Z,23.30
2019-02-08T07:30:11.805Z,28.00
2019-02-08T07:32:58.947Z,24.50
2019-02-08T07:35:45.833Z,26.60
2019-02-08T07:38:43.687Z,24.20
2019-02-08T07:41:31.281Z,26.73
2019-02-08T07:44:26.028Z,27.40
2019-02-08T07:47:18.019Z,24.80
2019-02-08T07:50:07.033Z,27.60
2019-02-08T07:52:57.794Z,24.60
2019-02-08T07:55:44.911Z,24.13
2019-02-08T07:58:45.859Z,27.47
2019-02-08T08:01:38.775Z,23.17
2019-02-08T08:04:29.215Z,33.67
2019-02-08T08:07:15.591Z,29.13
2019-02-08T08:10:06.286Z,25.70
2019-02-08T08:13:00.370Z,26.27
2019-02-08T08:16:04.087Z,23.40
2019-02-08T08:18:48.909Z,33.03
2019-02-08T08:21:36.955Z,28.97
2019-02-08T08:24:38.653Z,26.67
2019-02-08T08:27:32.774Z,29.27
2019-02-08T08:30:19.033Z,24.73
2019-02-08T08:33:06.160Z,30.03
2019-02-08T08:36:05.186Z,30.67
2019-02-08T08:39:11.538Z,25.30
2019-02-08T08:42:20.326Z,23.40
2019-02-08T08:45:26.354Z,21.03
2019-02-08T08:48:22.611Z,21.33
2019-02-08T08:51:28.643Z,26.47
2019-02-08T08:54:54.487Z,26.40
2019-02-08T08:57:40.884Z,24.67
2019-02-08T09:00:42.242Z,21.83
2019-02-08T09:04:07.439Z,24.70
2019-02-08T09:07:19.141Z,22.43
2019-02-08T09:10:34.223Z,24.17
2019-02-08T09:13:56.642Z,22.23
2019-02-08T09:16:54.048Z,20.83
2019-02-08T09:20:06.145Z,21.93
2019-02-08T09:23:18.752Z,26.07
2019-02-08T09:26:23.730Z,24.17
2019-02-08T09:29:18.213Z,27.00
2019-02-08T09:32:35.357Z,28.93
2019-02-08T09:35:59.856Z,28.27
2019-02-08T09:39:19.331Z,31.67
2019-02-08T09:42:50.519Z,33.50
2019-02-08T09:45:56.409Z,20.23
2019-02-08T09:49:01.450Z,21.17
2019-02-08T09:52:08.213Z,22.73
2019-02-08T09:55:06.560Z,25.33
2019-02-08T09:58:18.548Z,26.97
2019-02-08T10:01:13.153Z,33.53
2019-02-08T10:04:25.994Z,26.83
2019-02-08T10:07:17.421Z,28.73
2019-02-08T10:10:22.820Z,24.77
2019-02-08T10:13:22.988Z,27.17
2019-02-08T10:16:29.089Z,21.67
2019-02-08T10:19:35.031Z,22.43
2019-02-08T10:23:06.388Z,27.77
2019-02-08T10:26:06.748Z,17.57
2019-02-08T10:29:11.782Z,24.17
2019-02-08T10:32:25.480Z,24.53
2019-02-08T10:35:22.807Z,24.30
2019-02-08T10:38:35.416Z,25.53
2019-02-08T10:41:50.915Z,23.40
2019-02-08T10:45:04.329Z,23.63
2019-02-08T10:48:09.889Z,24.97
2019-02-08T10:51:07.744Z,31.50
2019-02-08T10:54:13.877Z,42.80
2019-02-08T10:57:31.021Z,28.27
2019-02-08T11:00:55.479Z,23.27
2019-02-08T11:04:05.727Z,30.93
2019-02-08T11:07:16.612Z,26.10
2019-02-08T11:10:21.500Z,22.40
2019-02-08T11:13:28.753Z,22.90
2019-02-08T11:16:38.709Z,24.07
2019-02-08T11:19:24.936Z,27.93
2019-02-08T11:21:54.948Z,28.07
2019-02-08T11:24:27.879Z,34.67
2019-02-08T11:26:59.578Z,27.57
2019-02-08T11:29:29.241Z,27.53
2019-02-08T11:31:58.692Z,25.97
2019-02-08T11:34:28.225Z,28.90
2019-02-08T11:36:57.674Z,28.10
2019-02-08T11:39:27.140Z,33.33
2019-02-08T11:41:56.864Z,34.07
2019-02-08T11:44:26.343Z,28.10
2019-02-08T11:46:55.732Z,38.90
2019-02-08T11:49:25.235Z,33.50
2019-02-08T11:51:54.727Z,33.13
2019-02-08T11:54:24.100Z,39.07
2019-02-08T11:56:53.789Z,29.60
2019-02-08T11:59:23.271Z,27.77
2019-02-08T12:01:53.204Z,30.37
2019-02-08T12:04:22.681Z,31.17
2019-02-08T12:06:52.055Z,40.90
2019-02-08T12:09:21.679Z,28.27
2019-02-08T12:11:51.643Z,30.90
2019-02-08T12:14:21.106Z,29.43
2019-02-08T12:16:50.586Z,31.97
2019-02-08T12:19:20.391Z,47.80
2019-02-08T12:21:49.778Z,42.97
2019-02-08T12:24:19.343Z,42.97
2019-02-08T12:26:48.973Z,36.87
2019-02-08T12:29:18.342Z,32.47
2019-02-08T12:31:47.719Z,34.43
2019-02-08T12:34:17.238Z,33.20
2019-02-08T12:36:46.721Z,30.47
2019-02-08T12:39:16.138Z,39.07
2019-02-08T12:41:45.816Z,31.10
2019-02-08T12:44:15.375Z,35.47
2019-02-08T12:46:44.920Z,36.40
2019-02-08T12:49:14.436Z,39.23
2019-02-08T12:51:43.912Z,34.67
2019-02-08T12:54:13.378Z,34.43
2019-02-08T12:56:45.692Z,42.17
2019-02-08T12:59:14.024Z,39.53
2019-02-08T13:01:43.536Z,32.93
2019-02-08T13:04:13.106Z,37.20
2019-02-08T13:06:42.482Z,38.47
2019-02-08T13:09:12.625Z,37.43
2019-02-08T13:11:42.311Z,45.73
2019-02-08T13:14:14.007Z,39.67
2019-02-08T13:16:43.383Z,35.10
2019-02-08T13:19:12.900Z,35.23
2019-02-08T13:21:42.578Z,34.73
2019-02-08T13:24:12.054Z,41.03
2019-02-08T13:26:41.630Z,43.43
2019-02-08T13:29:11.107Z,43.57
2019-02-08T13:31:40.480Z,41.27
2019-02-08T13:34:10.108Z,36.73
2019-02-08T13:36:39.601Z,31.37
2019-02-08T13:39:10.235Z,32.57
2019-02-08T13:41:39.641Z,33.13
2019-02-08T13:44:09.156Z,36.90
2019-02-08T13:46:38.625Z,33.40
2019-02-08T13:49:08.052Z,38.63
2019-02-08T13:51:37.423Z,38.80
2019-02-08T13:54:10.282Z,40.47
2019-02-08T13:56:39.782Z,37.70
2019-02-08T13:59:09.190Z,37.03
2019-02-08T14:01:38.576Z,37.00
2019-02-08T14:04:08.087Z,38.43
2019-02-08T14:06:37.589Z,38.17
2019-02-08T14:09:09.582Z,38.10
2019-02-08T14:11:39.095Z,33.37
2019-02-08T14:14:08.577Z,32.30
2019-02-08T14:16:39.357Z,33.40
2019-02-08T14:19:09.010Z,29.97
2019-02-08T14:21:38.474Z,27.27
2019-02-08T14:24:07.857Z,29.53
2019-02-08T14:26:37.331Z,31.13
2019-02-08T14:29:06.829Z,29.27
2019-02-08T14:31:36.345Z,28.20
2019-02-08T14:34:05.969Z,32.30
2019-02-08T14:36:35.361Z,32.07
2019-02-08T14:39:08.255Z,27.80
2019-02-08T14:41:37.779Z,24.20
2019-02-08T14:44:07.424Z,32.27
2019-02-08T14:46:36.791Z,32.97
2019-02-08T14:49:06.701Z,33.77
2019-02-08T14:51:37.135Z,33.87
2019-02-08T14:54:06.810Z,29.60
2019-02-08T14:56:36.283Z,32.23
2019-02-08T14:59:06.078Z,39.77
2019-02-08T15:01:35.502Z,38.03
2019-02-08T15:04:07.459Z,28.60
2019-02-08T15:06:36.702Z,26.80
2019-02-08T15:09:10.488Z,34.50
2019-02-08T15:11:39.909Z,35.47
2019-02-08T15:14:09.428Z,37.67
2019-02-08T15:16:38.940Z,42.20
2019-02-08T15:19:08.328Z,33.20
2019-02-08T15:21:37.719Z,74.00
2019-02-08T15:24:07.250Z,35.17
2019-02-08T15:26:36.757Z,35.63
2019-02-08T15:29:06.312Z,41.40
2019-02-08T15:31:36.077Z,45.97
2019-02-08T15:34:07.267Z,40.37
2019-02-08T15:36:36.661Z,42.87
2019-02-08T15:39:11.183Z,38.57
2019-02-08T15:41:40.753Z,41.07
2019-02-08T15:44:10.160Z,39.60
2019-02-08T15:46:39.555Z,42.70
2019-02-08T15:49:09.015Z,46.07
2019-02-08T15:51:38.579Z,47.90
2019-02-08T15:54:08.003Z,48.63
2019-02-08T15:56:37.924Z,46.53
2019-02-08T15:59:07.579Z,43.60
2019-02-08T16:01:37.190Z,46.37
2019-02-08T16:04:06.656Z,48.07
2019-02-08T16:06:36.051Z,52.13
2019-02-08T16:09:11.493Z,52.73
2019-02-08T16:11:40.964Z,53.37
2019-02-08T16:14:10.646Z,52.23
2019-02-08T16:16:40.158Z,57.03
2019-02-08T16:19:11.379Z,54.07
2019-02-08T16:21:40.757Z,66.00
2019-02-08T16:24:10.386Z,72.50
2019-02-08T16:26:39.840Z,67.40
2019-02-08T16:29:09.319Z,76.90
2019-02-08T16:31:38.865Z,68.80
2019-02-08T16:34:08.445Z,65.87
2019-02-08T16:36:38.058Z,66.80
2019-02-08T16:39:10.529Z,72.00
2019-02-08T16:41:39.973Z,63.33
2019-02-08T16:44:10.145Z,70.30
2019-02-08T16:46:40.472Z,76.93
2019-02-08T16:49:09.933Z,80.40
2019-02-08T16:51:39.338Z,78.87
2019-02-08T16:54:09.132Z,91.70
2019-02-08T16:56:38.607Z,86.53
2019-02-08T16:59:08.288Z,97.87
2019-02-08T17:01:37.738Z,109.93
2019-02-08T17:04:07.323Z,98.20
2019-02-08T17:06:36.807Z,97.17
2019-02-08T17:09:11.910Z,107.50
2019-02-08T17:11:41.571Z,95.83
2019-02-08T17:14:11.168Z,94.03
2019-02-08T17:16:40.829Z,85.10
2019-02-08T17:19:10.221Z,91.17
2019-02-08T17:21:39.710Z,91.67
2019-02-08T17:24:09.237Z,90.67
2019-02-08T17:26:38.699Z,84.90
2019-02-08T17:29:08.101Z,98.60
2019-02-08T17:31:37.754Z,91.90
2019-02-08T17:34:07.146Z,88.47
2019-02-08T17:36:36.546Z,79.73
2019-02-08T17:39:07.893Z,89.03
2019-02-08T17:41:37.385Z,87.20
2019-02-08T17:44:07.040Z,92.83
2019-02-08T17:46:36.523Z,104.07
2019-02-08T17:49:05.994Z,86.00
2019-02-08T17:51:36.911Z,75.40
2019-02-08T17:54:06.494Z,68.43
2019-02-08T17:56:35.910Z,70.40
2019-02-08T17:59:05.420Z,78.97
2019-02-08T18:01:34.897Z,75.33
2019-02-08T18:04:04.274Z,84.20
2019-02-08T18:06:33.696Z,86.63
2019-02-08T18:09:03.226Z,84.60
2019-02-08T18:11:32.607Z,98.33
2019-02-08T18:14:02.194Z,98.10
2019-02-08T18:16:31.697Z,84.70
2019-02-08T18:19:01.118Z,92.57
2019-02-08T18:21:30.500Z,93.27
2019-02-08T18:24:00.139Z,79.13
2019-02-08T18:26:29.571Z,77.50
2019-02-08T18:28:58.949Z,85.23
2019-02-08T18:31:28.375Z,77.60
2019-02-08T18:33:57.839Z,79.10
2019-02-08T18:36:27.306Z,76.63
2019-02-08T18:38:57.375Z,66.07
2019-02-08T18:41:26.913Z,75.30
2019-02-08T18:43:56.387Z,77.50
2019-02-08T18:46:25.900Z,72.13
2019-02-08T18:48:55.287Z,76.13
2019-02-08T18:51:24.778Z,87.23
2019-02-08T18:53:54.498Z,86.13
2019-02-08T18:56:23.959Z,86.77
2019-02-08T18:58:53.465Z,100.20
2019-02-08T19:01:23.133Z,87.00
2019-02-08T19:03:52.493Z,71.20
2019-02-08T19:06:21.893Z,82.73
2019-02-08T19:08:51.569Z,76.20
2019-02-08T19:11:21.047Z,81.00
2019-02-08T19:13:50.508Z,88.87
2019-02-08T19:16:19.976Z,86.10
2019-02-08T19:18:49.450Z,85.43
2019-02-08T19:21:19.003Z,84.00
2019-02-08T19:23:48.638Z,89.27
2019-02-08T19:26:18.375Z,89.70
2019-02-08T19:28:47.922Z,91.37
2019-02-08T19:31:17.344Z,88.87
2019-02-08T19:33:46.834Z,90.80
2019-02-08T19:36:16.315Z,81.97
2019-02-08T19:38:45.744Z,88.10
2019-02-08T19:41:15.114Z,86.97
2019-02-08T19:43:44.604Z,77.27
2019-02-08T19:46:14.147Z,85.80
2019-02-08T19:48:43.502Z,87.90
2019-02-08T19:51:12.897Z,88.17
2019-02-08T19:53:42.631Z,89.60
2019-02-08T19:56:12.080Z,76.07
2019-02-08T19:58:41.482Z,78.00
2019-02-08T20:01:10.996Z,76.60
2019-02-08T20:03:40.478Z,74.33
2019-02-08T20:06:10.163Z,67.00
2019-02-08T20:08:39.569Z,92.17
2019-02-08T20:11:09.101Z,88.53
2019-02-08T20:13:38.470Z,71.13
2019-02-08T20:16:07.904Z,77.97
2019-02-08T20:18:37.386Z,86.60
2019-02-08T20:21:07.144Z,72.20
2019-02-08T20:23:36.572Z,69.27
2019-02-08T20:26:06.116Z,69.73
2019-02-08T20:28:42.115Z,68.13
2019-02-08T20:31:08.045Z,63.60
2019-02-08T20:33:37.411Z,68.97
2019-02-08T20:36:07.017Z,66.43
2019-02-08T20:38:36.714Z,71.17
2019-02-08T20:41:06.291Z,68.53
2019-02-08T20:43:35.676Z,77.07
2019-02-08T20:46:05.111Z,80.47
2019-02-08T20:48:34.589Z,98.90
2019-02-08T20:51:04.093Z,80.00
2019-02-08T20:53:33.596Z,79.43
2019-02-08T20:56:03.173Z,77.87
2019-02-08T20:58:33.227Z,69.57
2019-02-08T21:01:03.026Z,75.37
2019-02-08T21:03:32.602Z,55.50
2019-02-08T21:06:02.150Z,55.97
2019-02-08T21:08:31.889Z,51.00
2019-02-08T21:11:01.267Z,52.33
2019-02-08T21:13:30.856Z,51.90
2019-02-08T21:16:00.375Z,49.13
2019-02-08T21:18:29.741Z,45.03
2019-02-08T21:20:59.125Z,42.30
2019-02-08T21:23:28.799Z,44.30
2019-02-08T21:25:58.250Z,44.10
2019-02-08T21:28:27.642Z,36.47
2019-02-08T21:30:58.135Z,40.57
2019-02-08T21:33:27.663Z,32.77
2019-02-08T21:35:57.062Z,34.97
2019-02-08T21:38:26.594Z,36.43
2019-02-08T21:40:56.074Z,32.23
2019-02-08T21:43:25.438Z,29.93
2019-02-08T21:45:55.070Z,34.43
2019-02-08T21:48:24.655Z,32.73
2019-02-08T21:50:54.292Z,32.90
2019-02-08T21:53:23.737Z,37.37
2019-02-08T21:55:53.226Z,34.90
2019-02-08T21:58:22.715Z,32.30
2019-02-08T22:00:52.234Z,35.63
2019-02-08T22:03:21.627Z,41.97
2019-02-08T22:05:57.888Z,33.10
2019-02-08T22:08:27.365Z,28.57
2019-02-08T22:10:56.821Z,24.63
2019-02-08T22:13:26.393Z,25.37
2019-02-08T22:15:55.769Z,24.50
2019-02-08T22:18:25.382Z,26.23
2019-02-08T22:20:54.904Z,27.87
2019-02-08T22:23:24.284Z,26.17
2019-02-08T22:25:53.667Z,27.77
2019-02-08T22:28:23.310Z,34.13
2019-02-08T22:30:52.789Z,28.73
2019-02-08T22:33:22.583Z,24.73
2019-02-08T22:35:52.177Z,24.07
2019-02-08T22:38:21.766Z,25.37
2019-02-08T22:40:51.233Z,21.93
2019-02-08T22:43:20.814Z,24.40
2019-02-08T22:45:50.241Z,25.73
2019-02-08T22:48:19.700Z,22.63
2019-02-08T22:50:49.290Z,25.93
2019-02-08T22:53:18.795Z,22.70
2019-02-08T22:55:48.307Z,23.37
2019-02-08T22:58:17.775Z,21.07
2019-02-08T23:01:15.307Z,22.47
2019-02-08T23:03:44.827Z,22.77
2019-02-08T23:06:14.391Z,24.03
2019-02-08T23:08:43.793Z,25.67
2019-02-08T23:11:13.307Z,23.13
2019-02-08T23:13:42.797Z,24.90
2019-02-08T23:16:12.861Z,25.97
2019-02-08T23:18:42.374Z,27.13
2019-02-08T23:21:12.207Z,23.23
2019-02-08T23:23:41.972Z,22.77
2019-02-08T23:26:11.476Z,23.17
2019-02-08T23:28:40.877Z,22.87
2019-02-08T23:31:10.464Z,26.73
2019-02-08T23:33:39.897Z,26.57
2019-02-08T23:36:09.393Z,28.73
2019-02-08T23:38:38.871Z,21.10
2019-02-08T23:41:08.385Z,22.80
2019-02-08T23:43:37.774Z,23.10
2019-02-08T23:46:07.265Z,23.30
2019-02-08T23:48:36.810Z,25.07
2019-02-08T23:51:06.419Z,23.03
2019-02-08T23:53:35.792Z,26.27
2019-02-08T23:56:05.621Z,23.07
2019-02-08T23:58:35.105Z,23.20
